Alberic, Spain
Current Conditions -  °F | °C
As of 2:00 PM on Tuesday 21 Oct 2014 (Local Time) from LEVC Reporting Station
Clear Clear  
Wind Chill: 93°   Ceiling: Unl
Heat Index: 93°   Visibility: 6mi
Dew Point: 45°   Wind: 6mph
Humidity: 19%   Direction: 230°SW
Pressure: 30.12"   Gusts: NA
Location:  39.12°N, 0.52°W
Report Text: LEVC 211200Z 23005KT 200V270 CAVOK 34/07 Q1020 NOSIG
Loading
Personal Weather Stations






























Interactive Weather Map
Tropical Storm Tracking
New forecast layout! Learn more

10-Day Weather Forecast

Advertisements
Track Severe Weather on mobile